sensor_id;sensor_type;location;lat;lon;timestamp;P1;durP1;ratioP1;P2;durP2;ratioP2
40164;SDS011;25882;51.120;17.248;2022-11-20T00:01:20;98.90;;;40.70;;
40164;SDS011;25882;51.120;17.248;2022-11-20T00:03:47;86.35;;;33.45;;
40164;SDS011;25882;51.120;17.248;2022-11-20T00:06:15;100.18;;;37.72;;
40164;SDS011;25882;51.120;17.248;2022-11-20T00:08:42;83.32;;;33.83;;
40164;SDS011;25882;51.120;17.248;2022-11-20T00:11:10;81.38;;;32.90;;
40164;SDS011;25882;51.120;17.248;2022-11-20T00:13:37;82.90;;;32.28;;
40164;SDS011;25882;51.120;17.248;2022-11-20T00:16:06;92.70;;;34.83;;
40164;SDS011;25882;51.120;17.248;2022-11-20T00:18:33;68.60;;;29.42;;
40164;SDS011;25882;51.120;17.248;2022-11-20T00:21:00;82.38;;;31.05;;
40164;SDS011;25882;51.120;17.248;2022-11-20T00:23:27;68.45;;;29.08;;
40164;SDS011;25882;51.120;17.248;2022-11-20T00:25:54;62.85;;;28.55;;
40164;SDS011;25882;51.120;17.248;2022-11-20T00:28:20;76.80;;;29.75;;
40164;SDS011;25882;51.120;17.248;2022-11-20T00:30:47;73.53;;;28.27;;
40164;SDS011;25882;51.120;17.248;2022-11-20T00:33:14;71.30;;;27.73;;
40164;SDS011;25882;51.120;17.248;2022-11-20T00:35:41;67.18;;;29.17;;
40164;SDS011;25882;51.120;17.248;2022-11-20T00:38:07;70.05;;;29.85;;
40164;SDS011;25882;51.120;17.248;2022-11-20T00:40:33;71.65;;;29.50;;
40164;SDS011;25882;51.120;17.248;2022-11-20T00:42:59;73.82;;;34.80;;
40164;SDS011;25882;51.120;17.248;2022-11-20T00:45:26;86.45;;;35.40;;
40164;SDS011;25882;51.120;17.248;2022-11-20T00:47:52;86.78;;;37.13;;
40164;SDS011;25882;51.120;17.248;2022-11-20T00:50:20;95.15;;;39.25;;
40164;SDS011;25882;51.120;17.248;2022-11-20T00:52:46;75.65;;;33.97;;
40164;SDS011;25882;51.120;17.248;2022-11-20T00:55:13;89.32;;;39.42;;
40164;SDS011;25882;51.120;17.248;2022-11-20T00:57:39;89.97;;;38.00;;
40164;SDS011;25882;51.120;17.248;2022-11-20T01:00:06;100.65;;;39.95;;
40164;SDS011;25882;51.120;17.248;2022-11-20T01:02:32;89.05;;;39.22;;
40164;SDS011;25882;51.120;17.248;2022-11-20T01:04:59;95.35;;;37.42;;
40164;SDS011;25882;51.120;17.248;2022-11-20T01:07:27;96.63;;;37.67;;
40164;SDS011;25882;51.120;17.248;2022-11-20T01:09:53;91.63;;;38.88;;
40164;SDS011;25882;51.120;17.248;2022-11-20T01:12:20;88.65;;;35.80;;
40164;SDS011;25882;51.120;17.248;2022-11-20T01:14:47;86.45;;;37.53;;
40164;SDS011;25882;51.120;17.248;2022-11-20T01:17:13;84.22;;;35.17;;
40164;SDS011;25882;51.120;17.248;2022-11-20T01:19:40;85.75;;;34.50;;
40164;SDS011;25882;51.120;17.248;2022-11-20T01:22:06;82.45;;;34.92;;
40164;SDS011;25882;51.120;17.248;2022-11-20T01:24:34;80.40;;;33.78;;
40164;SDS011;25882;51.120;17.248;2022-11-20T01:27:00;78.88;;;30.98;;
40164;SDS011;25882;51.120;17.248;2022-11-20T01:29:27;76.10;;;31.73;;
40164;SDS011;25882;51.120;17.248;2022-11-20T01:31:53;81.90;;;30.95;;
40164;SDS011;25882;51.120;17.248;2022-11-20T01:34:20;74.38;;;29.00;;
40164;SDS011;25882;51.120;17.248;2022-11-20T01:36:48;73.50;;;28.75;;
40164;SDS011;25882;51.120;17.248;2022-11-20T01:39:15;83.88;;;30.23;;
40164;SDS011;25882;51.120;17.248;2022-11-20T01:41:44;77.03;;;27.52;;
40164;SDS011;25882;51.120;17.248;2022-11-20T01:44:49;61.42;;;25.60;;
40164;SDS011;25882;51.120;17.248;2022-11-20T01:47:17;72.25;;;29.42;;
40164;SDS011;25882;51.120;17.248;2022-11-20T01:49:48;73.78;;;30.13;;
40164;SDS011;25882;51.120;17.248;2022-11-20T01:52:17;70.78;;;27.17;;
40164;SDS011;25882;51.120;17.248;2022-11-20T01:54:46;70.82;;;28.00;;
40164;SDS011;25882;51.120;17.248;2022-11-20T01:57:16;64.15;;;27.02;;
40164;SDS011;25882;51.120;17.248;2022-11-20T01:59:44;72.22;;;29.67;;
40164;SDS011;25882;51.120;17.248;2022-11-20T02:02:13;59.92;;;27.75;;
40164;SDS011;25882;51.120;17.248;2022-11-20T02:04:40;61.88;;;27.33;;
40164;SDS011;25882;51.120;17.248;2022-11-20T02:07:06;71.60;;;28.75;;
40164;SDS011;25882;51.120;17.248;2022-11-20T02:09:33;67.70;;;25.92;;
40164;SDS011;25882;51.120;17.248;2022-11-20T02:11:59;69.55;;;27.17;;
40164;SDS011;25882;51.120;17.248;2022-11-20T02:14:31;65.72;;;28.80;;
40164;SDS011;25882;51.120;17.248;2022-11-20T02:16:57;66.50;;;27.63;;
40164;SDS011;25882;51.120;17.248;2022-11-20T02:19:24;65.28;;;26.20;;
40164;SDS011;25882;51.120;17.248;2022-11-20T02:21:55;72.68;;;29.75;;
40164;SDS011;25882;51.120;17.248;2022-11-20T02:24:26;69.75;;;29.27;;
40164;SDS011;25882;51.120;17.248;2022-11-20T02:26:53;75.07;;;27.73;;
40164;SDS011;25882;51.120;17.248;2022-11-20T02:29:23;67.05;;;29.30;;
40164;SDS011;25882;51.120;17.248;2022-11-20T02:31:51;77.93;;;33.15;;
40164;SDS011;25882;51.120;17.248;2022-11-20T02:34:17;63.78;;;28.15;;
40164;SDS011;25882;51.120;17.248;2022-11-20T02:36:43;71.75;;;29.63;;
40164;SDS011;25882;51.120;17.248;2022-11-20T02:39:10;63.78;;;27.77;;
40164;SDS011;25882;51.120;17.248;2022-11-20T02:41:39;71.70;;;28.90;;
40164;SDS011;25882;51.120;17.248;2022-11-20T02:44:05;75.43;;;30.15;;
40164;SDS011;25882;51.120;17.248;2022-11-20T02:46:32;77.00;;;30.40;;
40164;SDS011;25882;51.120;17.248;2022-11-20T02:48:58;72.50;;;29.80;;
40164;SDS011;25882;51.120;17.248;2022-11-20T02:51:25;66.80;;;26.88;;
40164;SDS011;25882;51.120;17.248;2022-11-20T02:53:52;74.43;;;30.42;;
40164;SDS011;25882;51.120;17.248;2022-11-20T02:56:18;67.95;;;29.15;;
40164;SDS011;25882;51.120;17.248;2022-11-20T02:58:46;74.50;;;29.48;;
40164;SDS011;25882;51.120;17.248;2022-11-20T03:04:00;64.13;;;27.63;;
40164;SDS011;25882;51.120;17.248;2022-11-20T03:06:26;71.55;;;30.23;;
40164;SDS011;25882;51.120;17.248;2022-11-20T03:08:53;70.03;;;28.58;;
40164;SDS011;25882;51.120;17.248;2022-11-20T03:11:19;77.60;;;30.50;;
40164;SDS011;25882;51.120;17.248;2022-11-20T03:13:47;79.80;;;29.25;;
40164;SDS011;25882;51.120;17.248;2022-11-20T03:16:13;70.45;;;30.52;;
40164;SDS011;25882;51.120;17.248;2022-11-20T03:18:41;72.85;;;28.83;;
40164;SDS011;25882;51.120;17.248;2022-11-20T03:21:08;74.53;;;31.30;;
40164;SDS011;25882;51.120;17.248;2022-11-20T03:23:35;80.68;;;32.72;;
40164;SDS011;25882;51.120;17.248;2022-11-20T03:26:09;71.35;;;29.92;;
40164;SDS011;25882;51.120;17.248;2022-11-20T03:28:36;73.25;;;29.10;;
40164;SDS011;25882;51.120;17.248;2022-11-20T03:31:08;88.40;;;33.50;;
40164;SDS011;25882;51.120;17.248;2022-11-20T03:33:36;71.63;;;29.30;;
40164;SDS011;25882;51.120;17.248;2022-11-20T03:36:03;69.35;;;27.85;;
40164;SDS011;25882;51.120;17.248;2022-11-20T03:38:30;80.38;;;33.53;;
40164;SDS011;25882;51.120;17.248;2022-11-20T03:41:00;85.15;;;31.75;;
40164;SDS011;25882;51.120;17.248;2022-11-20T03:43:28;93.68;;;34.47;;
40164;SDS011;25882;51.120;17.248;2022-11-20T03:45:54;82.47;;;34.10;;
40164;SDS011;25882;51.120;17.248;2022-11-20T03:48:22;97.80;;;36.60;;
40164;SDS011;25882;51.120;17.248;2022-11-20T03:50:48;98.95;;;36.22;;
40164;SDS011;25882;51.120;17.248;2022-11-20T03:53:15;96.53;;;35.88;;
40164;SDS011;25882;51.120;17.248;2022-11-20T03:55:42;87.07;;;34.20;;
40164;SDS011;25882;51.120;17.248;2022-11-20T03:58:09;76.95;;;32.22;;
40164;SDS011;25882;51.120;17.248;2022-11-20T04:00:35;66.07;;;30.38;;
40164;SDS011;25882;51.120;17.248;2022-11-20T04:03:02;86.25;;;31.63;;
40164;SDS011;25882;51.120;17.248;2022-11-20T04:05:29;80.85;;;32.33;;
40164;SDS011;25882;51.120;17.248;2022-11-20T04:07:56;67.60;;;30.25;;
40164;SDS011;25882;51.120;17.248;2022-11-20T04:10:23;74.30;;;29.33;;
40164;SDS011;25882;51.120;17.248;2022-11-20T04:12:49;74.03;;;30.20;;
40164;SDS011;25882;51.120;17.248;2022-11-20T04:15:15;87.78;;;34.88;;
40164;SDS011;25882;51.120;17.248;2022-11-20T04:17:42;82.53;;;35.40;;
40164;SDS011;25882;51.120;17.248;2022-11-20T04:20:08;79.97;;;34.13;;
40164;SDS011;25882;51.120;17.248;2022-11-20T04:22:36;77.97;;;32.33;;
40164;SDS011;25882;51.120;17.248;2022-11-20T04:25:03;81.15;;;32.88;;
40164;SDS011;25882;51.120;17.248;2022-11-20T04:29:33;77.15;;;33.25;;
40164;SDS011;25882;51.120;17.248;2022-11-20T04:31:59;79.88;;;31.52;;
40164;SDS011;25882;51.120;17.248;2022-11-20T04:34:25;83.55;;;34.88;;
40164;SDS011;25882;51.120;17.248;2022-11-20T04:36:52;85.85;;;37.30;;
40164;SDS011;25882;51.120;17.248;2022-11-20T04:39:18;83.22;;;34.13;;
40164;SDS011;25882;51.120;17.248;2022-11-20T04:41:44;91.38;;;38.85;;
40164;SDS011;25882;51.120;17.248;2022-11-20T04:44:10;123.00;;;48.33;;
40164;SDS011;25882;51.120;17.248;2022-11-20T04:46:39;92.43;;;37.15;;
40164;SDS011;25882;51.120;17.248;2022-11-20T04:49:06;97.05;;;35.53;;
40164;SDS011;25882;51.120;17.248;2022-11-20T04:51:33;81.20;;;34.28;;
40164;SDS011;25882;51.120;17.248;2022-11-20T04:53:59;78.90;;;34.35;;
40164;SDS011;25882;51.120;17.248;2022-11-20T04:56:25;77.00;;;32.13;;
40164;SDS011;25882;51.120;17.248;2022-11-20T04:58:52;72.45;;;31.15;;
40164;SDS011;25882;51.120;17.248;2022-11-20T05:01:19;84.90;;;31.55;;
40164;SDS011;25882;51.120;17.248;2022-11-20T05:03:47;90.95;;;33.38;;
40164;SDS011;25882;51.120;17.248;2022-11-20T05:06:16;82.78;;;36.08;;
40164;SDS011;25882;51.120;17.248;2022-11-20T05:08:43;106.45;;;42.88;;
40164;SDS011;25882;51.120;17.248;2022-11-20T05:11:10;116.57;;;50.60;;
40164;SDS011;25882;51.120;17.248;2022-11-20T05:13:37;103.65;;;46.08;;
40164;SDS011;25882;51.120;17.248;2022-11-20T05:16:05;90.85;;;39.45;;
40164;SDS011;25882;51.120;17.248;2022-11-20T05:18:32;88.85;;;39.80;;
40164;SDS011;25882;51.120;17.248;2022-11-20T05:21:00;99.18;;;34.97;;
40164;SDS011;25882;51.120;17.248;2022-11-20T05:23:27;81.40;;;32.50;;
40164;SDS011;25882;51.120;17.248;2022-11-20T05:25:54;99.40;;;35.72;;
40164;SDS011;25882;51.120;17.248;2022-11-20T05:28:20;92.30;;;34.00;;
40164;SDS011;25882;51.120;17.248;2022-11-20T05:30:47;81.10;;;33.47;;
40164;SDS011;25882;51.120;17.248;2022-11-20T05:33:13;77.45;;;30.55;;
40164;SDS011;25882;51.120;17.248;2022-11-20T05:35:40;68.93;;;29.30;;
40164;SDS011;25882;51.120;17.248;2022-11-20T05:38:07;68.72;;;30.23;;
40164;SDS011;25882;51.120;17.248;2022-11-20T05:40:34;61.08;;;26.90;;
40164;SDS011;25882;51.120;17.248;2022-11-20T05:43:00;66.13;;;26.60;;
40164;SDS011;25882;51.120;17.248;2022-11-20T05:45:27;67.25;;;25.60;;
40164;SDS011;25882;51.120;17.248;2022-11-20T05:47:57;58.95;;;24.77;;
40164;SDS011;25882;51.120;17.248;2022-11-20T05:50:24;65.93;;;25.60;;
40164;SDS011;25882;51.120;17.248;2022-11-20T05:52:50;66.20;;;27.00;;
40164;SDS011;25882;51.120;17.248;2022-11-20T05:55:18;67.45;;;27.77;;
40164;SDS011;25882;51.120;17.248;2022-11-20T05:57:44;69.82;;;26.70;;
40164;SDS011;25882;51.120;17.248;2022-11-20T06:00:11;63.90;;;26.45;;
40164;SDS011;25882;51.120;17.248;2022-11-20T06:02:38;70.80;;;26.17;;
40164;SDS011;25882;51.120;17.248;2022-11-20T06:05:05;65.80;;;25.85;;
40164;SDS011;25882;51.120;17.248;2022-11-20T06:07:32;65.35;;;26.10;;
40164;SDS011;25882;51.120;17.248;2022-11-20T06:09:58;73.30;;;27.73;;
40164;SDS011;25882;51.120;17.248;2022-11-20T06:12:26;71.95;;;28.20;;
40164;SDS011;25882;51.120;17.248;2022-11-20T06:14:53;72.38;;;29.40;;
40164;SDS011;25882;51.120;17.248;2022-11-20T06:17:19;72.47;;;28.20;;
40164;SDS011;25882;51.120;17.248;2022-11-20T06:19:45;71.95;;;31.90;;
40164;SDS011;25882;51.120;17.248;2022-11-20T06:22:11;68.03;;;28.77;;
40164;SDS011;25882;51.120;17.248;2022-11-20T06:24:37;82.43;;;35.03;;
40164;SDS011;25882;51.120;17.248;2022-11-20T06:27:03;102.30;;;39.13;;
40164;SDS011;25882;51.120;17.248;2022-11-20T06:29:31;104.18;;;39.85;;
40164;SDS011;25882;51.120;17.248;2022-11-20T06:31:57;88.32;;;36.30;;
40164;SDS011;25882;51.120;17.248;2022-11-20T06:34:23;96.95;;;38.47;;
40164;SDS011;25882;51.120;17.248;2022-11-20T06:36:50;79.30;;;33.03;;
40164;SDS011;25882;51.120;17.248;2022-11-20T06:39:16;81.25;;;32.25;;
40164;SDS011;25882;51.120;17.248;2022-11-20T06:41:42;80.85;;;34.05;;
40164;SDS011;25882;51.120;17.248;2022-11-20T06:44:08;85.03;;;34.15;;
40164;SDS011;25882;51.120;17.248;2022-11-20T06:46:36;80.50;;;30.13;;
40164;SDS011;25882;51.120;17.248;2022-11-20T06:49:02;83.65;;;30.63;;
40164;SDS011;25882;51.120;17.248;2022-11-20T06:51:29;65.38;;;27.77;;
40164;SDS011;25882;51.120;17.248;2022-11-20T06:53:55;69.03;;;28.48;;
40164;SDS011;25882;51.120;17.248;2022-11-20T06:56:21;68.80;;;24.33;;
40164;SDS011;25882;51.120;17.248;2022-11-20T06:58:48;66.50;;;27.60;;
40164;SDS011;25882;51.120;17.248;2022-11-20T07:01:14;70.15;;;27.23;;
40164;SDS011;25882;51.120;17.248;2022-11-20T07:03:42;68.63;;;31.15;;
40164;SDS011;25882;51.120;17.248;2022-11-20T07:06:08;72.57;;;32.13;;
40164;SDS011;25882;51.120;17.248;2022-11-20T07:08:35;64.90;;;29.85;;
40164;SDS011;25882;51.120;17.248;2022-11-20T07:11:02;67.97;;;28.02;;
40164;SDS011;25882;51.120;17.248;2022-11-20T07:13:30;59.25;;;25.80;;
40164;SDS011;25882;51.120;17.248;2022-11-20T07:15:58;60.15;;;25.80;;
40164;SDS011;25882;51.120;17.248;2022-11-20T07:18:26;49.45;;;23.13;;
40164;SDS011;25882;51.120;17.248;2022-11-20T07:20:53;55.55;;;23.10;;
40164;SDS011;25882;51.120;17.248;2022-11-20T07:23:21;55.38;;;23.17;;
40164;SDS011;25882;51.120;17.248;2022-11-20T07:25:47;58.78;;;24.85;;
40164;SDS011;25882;51.120;17.248;2022-11-20T07:28:13;46.15;;;21.92;;
40164;SDS011;25882;51.120;17.248;2022-11-20T07:30:39;56.13;;;24.58;;
40164;SDS011;25882;51.120;17.248;2022-11-20T07:33:06;55.53;;;26.17;;
40164;SDS011;25882;51.120;17.248;2022-11-20T07:35:32;50.13;;;24.08;;
40164;SDS011;25882;51.120;17.248;2022-11-20T07:38:00;54.10;;;23.63;;
40164;SDS011;25882;51.120;17.248;2022-11-20T07:40:26;54.67;;;21.80;;
40164;SDS011;25882;51.120;17.248;2022-11-20T07:42:54;54.50;;;24.52;;
40164;SDS011;25882;51.120;17.248;2022-11-20T07:45:22;56.88;;;25.98;;
40164;SDS011;25882;51.120;17.248;2022-11-20T07:47:50;47.92;;;22.58;;
40164;SDS011;25882;51.120;17.248;2022-11-20T07:50:16;47.40;;;23.10;;
40164;SDS011;25882;51.120;17.248;2022-11-20T07:52:43;51.08;;;23.75;;
40164;SDS011;25882;51.120;17.248;2022-11-20T07:55:10;50.10;;;23.80;;
40164;SDS011;25882;51.120;17.248;2022-11-20T07:57:37;52.75;;;24.73;;
40164;SDS011;25882;51.120;17.248;2022-11-20T08:00:04;54.78;;;23.83;;
40164;SDS011;25882;51.120;17.248;2022-11-20T08:02:31;54.33;;;25.13;;
40164;SDS011;25882;51.120;17.248;2022-11-20T08:04:57;55.30;;;26.73;;
40164;SDS011;25882;51.120;17.248;2022-11-20T08:07:23;51.55;;;22.88;;
40164;SDS011;25882;51.120;17.248;2022-11-20T08:09:49;55.03;;;25.17;;
40164;SDS011;25882;51.120;17.248;2022-11-20T08:12:18;51.30;;;24.67;;
40164;SDS011;25882;51.120;17.248;2022-11-20T08:15:04;50.83;;;25.35;;
40164;SDS011;25882;51.120;17.248;2022-11-20T08:17:31;51.22;;;25.95;;
40164;SDS011;25882;51.120;17.248;2022-11-20T08:19:57;57.38;;;27.48;;
40164;SDS011;25882;51.120;17.248;2022-11-20T08:22:23;47.75;;;26.13;;
40164;SDS011;25882;51.120;17.248;2022-11-20T08:24:54;57.65;;;28.73;;
40164;SDS011;25882;51.120;17.248;2022-11-20T08:27:22;56.88;;;28.83;;
40164;SDS011;25882;51.120;17.248;2022-11-20T08:29:48;54.55;;;26.60;;
40164;SDS011;25882;51.120;17.248;2022-11-20T08:32:14;56.92;;;28.23;;
40164;SDS011;25882;51.120;17.248;2022-11-20T08:34:40;62.45;;;28.75;;
40164;SDS011;25882;51.120;17.248;2022-11-20T08:37:07;53.63;;;26.75;;
40164;SDS011;25882;51.120;17.248;2022-11-20T08:39:34;48.63;;;26.98;;
40164;SDS011;25882;51.120;17.248;2022-11-20T08:42:01;48.92;;;25.33;;
40164;SDS011;25882;51.120;17.248;2022-11-20T08:44:33;49.97;;;24.67;;
40164;SDS011;25882;51.120;17.248;2022-11-20T08:47:00;47.40;;;24.85;;
40164;SDS011;25882;51.120;17.248;2022-11-20T08:49:26;55.70;;;26.33;;
40164;SDS011;25882;51.120;17.248;2022-11-20T08:51:52;50.50;;;23.73;;
40164;SDS011;25882;51.120;17.248;2022-11-20T08:54:20;49.28;;;25.30;;
40164;SDS011;25882;51.120;17.248;2022-11-20T08:56:47;44.08;;;23.73;;
40164;SDS011;25882;51.120;17.248;2022-11-20T08:59:13;51.50;;;25.92;;
40164;SDS011;25882;51.120;17.248;2022-11-20T09:01:42;47.67;;;25.98;;
40164;SDS011;25882;51.120;17.248;2022-11-20T09:04:08;45.25;;;22.05;;
40164;SDS011;25882;51.120;17.248;2022-11-20T09:06:34;50.42;;;25.50;;
40164;SDS011;25882;51.120;17.248;2022-11-20T09:09:01;48.15;;;24.20;;
40164;SDS011;25882;51.120;17.248;2022-11-20T09:11:27;47.83;;;24.73;;
40164;SDS011;25882;51.120;17.248;2022-11-20T09:13:53;48.25;;;23.85;;
40164;SDS011;25882;51.120;17.248;2022-11-20T09:16:20;53.33;;;24.63;;
40164;SDS011;25882;51.120;17.248;2022-11-20T09:18:49;45.47;;;22.73;;
40164;SDS011;25882;51.120;17.248;2022-11-20T09:21:16;44.03;;;24.73;;
40164;SDS011;25882;51.120;17.248;2022-11-20T09:23:43;38.92;;;21.35;;
40164;SDS011;25882;51.120;17.248;2022-11-20T09:26:10;41.17;;;21.42;;
40164;SDS011;25882;51.120;17.248;2022-11-20T09:28:38;46.28;;;21.70;;
40164;SDS011;25882;51.120;17.248;2022-11-20T09:31:05;41.88;;;21.40;;
40164;SDS011;25882;51.120;17.248;2022-11-20T09:33:31;41.10;;;20.35;;
40164;SDS011;25882;51.120;17.248;2022-11-20T09:36:00;40.60;;;20.42;;
40164;SDS011;25882;51.120;17.248;2022-11-20T09:38:26;36.97;;;20.95;;
40164;SDS011;25882;51.120;17.248;2022-11-20T09:40:54;30.67;;;16.10;;
40164;SDS011;25882;51.120;17.248;2022-11-20T09:43:24;29.90;;;16.25;;
40164;SDS011;25882;51.120;17.248;2022-11-20T09:45:59;34.88;;;15.98;;
40164;SDS011;25882;51.120;17.248;2022-11-20T09:48:36;30.35;;;15.73;;
40164;SDS011;25882;51.120;17.248;2022-11-20T09:51:16;32.63;;;16.38;;
40164;SDS011;25882;51.120;17.248;2022-11-20T09:53:53;34.15;;;17.02;;
40164;SDS011;25882;51.120;17.248;2022-11-20T09:56:27;31.13;;;16.48;;
40164;SDS011;25882;51.120;17.248;2022-11-20T09:58:54;32.05;;;17.30;;
40164;SDS011;25882;51.120;17.248;2022-11-20T10:01:23;38.03;;;19.15;;
40164;SDS011;25882;51.120;17.248;2022-11-20T10:03:54;36.70;;;18.15;;
40164;SDS011;25882;51.120;17.248;2022-11-20T10:06:28;41.03;;;20.23;;
40164;SDS011;25882;51.120;17.248;2022-11-20T10:08:58;38.30;;;19.92;;
40164;SDS011;25882;51.120;17.248;2022-11-20T10:11:30;40.10;;;20.38;;
40164;SDS011;25882;51.120;17.248;2022-11-20T10:14:03;38.10;;;20.05;;
40164;SDS011;25882;51.120;17.248;2022-11-20T10:16:37;35.83;;;18.67;;
40164;SDS011;25882;51.120;17.248;2022-11-20T10:19:10;39.63;;;18.17;;
40164;SDS011;25882;51.120;17.248;2022-11-20T10:21:48;35.35;;;16.45;;
40164;SDS011;25882;51.120;17.248;2022-11-20T10:24:24;31.10;;;16.17;;
40164;SDS011;25882;51.120;17.248;2022-11-20T10:27:06;41.83;;;17.73;;
40164;SDS011;25882;51.120;17.248;2022-11-20T10:29:45;43.53;;;19.98;;
40164;SDS011;25882;51.120;17.248;2022-11-20T10:32:16;41.15;;;20.38;;
40164;SDS011;25882;51.120;17.248;2022-11-20T10:34:46;46.67;;;23.63;;
40164;SDS011;25882;51.120;17.248;2022-11-20T10:37:18;40.63;;;21.08;;
40164;SDS011;25882;51.120;17.248;2022-11-20T10:39:49;37.88;;;17.70;;
40164;SDS011;25882;51.120;17.248;2022-11-20T10:42:17;38.20;;;18.45;;
40164;SDS011;25882;51.120;17.248;2022-11-20T10:44:47;36.10;;;17.50;;
40164;SDS011;25882;51.120;17.248;2022-11-20T10:47:28;33.38;;;17.02;;
40164;SDS011;25882;51.120;17.248;2022-11-20T10:49:57;33.90;;;16.80;;
40164;SDS011;25882;51.120;17.248;2022-11-20T10:52:31;37.58;;;17.17;;
40164;SDS011;25882;51.120;17.248;2022-11-20T10:55:05;35.13;;;16.95;;
40164;SDS011;25882;51.120;17.248;2022-11-20T10:57:42;33.78;;;15.77;;
40164;SDS011;25882;51.120;17.248;2022-11-20T11:00:16;31.70;;;15.73;;
40164;SDS011;25882;51.120;17.248;2022-11-20T11:02:44;35.83;;;15.60;;
40164;SDS011;25882;51.120;17.248;2022-11-20T11:05:24;33.20;;;16.05;;
40164;SDS011;25882;51.120;17.248;2022-11-20T11:08:00;29.55;;;15.20;;
40164;SDS011;25882;51.120;17.248;2022-11-20T11:10:27;30.40;;;14.57;;
40164;SDS011;25882;51.120;17.248;2022-11-20T11:13:01;34.15;;;15.70;;
40164;SDS011;25882;51.120;17.248;2022-11-20T11:15:28;30.67;;;13.85;;
40164;SDS011;25882;51.120;17.248;2022-11-20T11:17:56;31.75;;;15.02;;
40164;SDS011;25882;51.120;17.248;2022-11-20T11:20:23;29.63;;;14.40;;
40164;SDS011;25882;51.120;17.248;2022-11-20T11:22:51;32.28;;;16.20;;
40164;SDS011;25882;51.120;17.248;2022-11-20T11:25:27;30.83;;;14.48;;
40164;SDS011;25882;51.120;17.248;2022-11-20T11:27:56;29.85;;;13.15;;
40164;SDS011;25882;51.120;17.248;2022-11-20T11:30:24;25.77;;;13.38;;
40164;SDS011;25882;51.120;17.248;2022-11-20T11:33:01;27.23;;;13.60;;
40164;SDS011;25882;51.120;17.248;2022-11-20T11:35:28;29.52;;;13.93;;
40164;SDS011;25882;51.120;17.248;2022-11-20T11:38:00;28.40;;;13.40;;
40164;SDS011;25882;51.120;17.248;2022-11-20T11:40:34;29.63;;;14.30;;
40164;SDS011;25882;51.120;17.248;2022-11-20T11:43:02;29.65;;;14.65;;
40164;SDS011;25882;51.120;17.248;2022-11-20T11:45:52;26.92;;;12.13;;
40164;SDS011;25882;51.120;17.248;2022-11-20T11:48:19;23.65;;;11.98;;
40164;SDS011;25882;51.120;17.248;2022-11-20T11:50:48;27.45;;;12.48;;
40164;SDS011;25882;51.120;17.248;2022-11-20T11:53:15;25.17;;;11.98;;
40164;SDS011;25882;51.120;17.248;2022-11-20T11:55:45;26.23;;;13.48;;
40164;SDS011;25882;51.120;17.248;2022-11-20T11:58:23;27.63;;;13.00;;
40164;SDS011;25882;51.120;17.248;2022-11-20T12:01:00;23.92;;;11.82;;
40164;SDS011;25882;51.120;17.248;2022-11-20T12:05:59;22.77;;;10.90;;
40164;SDS011;25882;51.120;17.248;2022-11-20T12:08:30;26.40;;;11.63;;
40164;SDS011;25882;51.120;17.248;2022-11-20T12:11:02;25.80;;;12.65;;
40164;SDS011;25882;51.120;17.248;2022-11-20T12:13:34;22.35;;;10.82;;
40164;SDS011;25882;51.120;17.248;2022-11-20T12:16:04;22.02;;;9.93;;
40164;SDS011;25882;51.120;17.248;2022-11-20T12:18:30;21.60;;;10.35;;
40164;SDS011;25882;51.120;17.248;2022-11-20T12:21:01;18.63;;;9.85;;
40164;SDS011;25882;51.120;17.248;2022-11-20T12:23:35;19.70;;;9.38;;
40164;SDS011;25882;51.120;17.248;2022-11-20T12:26:08;19.92;;;9.60;;
40164;SDS011;25882;51.120;17.248;2022-11-20T12:28:44;22.77;;;10.43;;
40164;SDS011;25882;51.120;17.248;2022-11-20T12:31:25;22.50;;;10.25;;
40164;SDS011;25882;51.120;17.248;2022-11-20T12:34:09;22.58;;;10.25;;
40164;SDS011;25882;51.120;17.248;2022-11-20T12:37:03;22.35;;;10.77;;
40164;SDS011;25882;51.120;17.248;2022-11-20T12:39:35;20.67;;;10.40;;
40164;SDS011;25882;51.120;17.248;2022-11-20T12:42:19;21.27;;;10.90;;
40164;SDS011;25882;51.120;17.248;2022-11-20T12:45:29;23.02;;;11.13;;
40164;SDS011;25882;51.120;17.248;2022-11-20T12:48:10;27.63;;;12.30;;
40164;SDS011;25882;51.120;17.248;2022-11-20T12:51:12;25.05;;;12.55;;
40164;SDS011;25882;51.120;17.248;2022-11-20T12:53:49;23.80;;;11.23;;
40164;SDS011;25882;51.120;17.248;2022-11-20T12:56:26;20.42;;;10.75;;
40164;SDS011;25882;51.120;17.248;2022-11-20T12:59:01;22.52;;;11.13;;
40164;SDS011;25882;51.120;17.248;2022-11-20T13:01:37;23.95;;;11.82;;
40164;SDS011;25882;51.120;17.248;2022-11-20T13:04:12;20.73;;;9.68;;
40164;SDS011;25882;51.120;17.248;2022-11-20T13:06:44;20.98;;;10.82;;
40164;SDS011;25882;51.120;17.248;2022-11-20T13:09:11;21.52;;;9.82;;
40164;SDS011;25882;51.120;17.248;2022-11-20T13:11:41;21.33;;;9.98;;
40164;SDS011;25882;51.120;17.248;2022-11-20T13:14:14;20.58;;;9.57;;
40164;SDS011;25882;51.120;17.248;2022-11-20T13:16:52;21.45;;;9.88;;
40164;SDS011;25882;51.120;17.248;2022-11-20T13:19:21;19.08;;;9.88;;
40164;SDS011;25882;51.120;17.248;2022-11-20T13:21:48;17.95;;;9.98;;
40164;SDS011;25882;51.120;17.248;2022-11-20T13:24:22;21.67;;;10.98;;
40164;SDS011;25882;51.120;17.248;2022-11-20T13:27:00;19.98;;;10.68;;
40164;SDS011;25882;51.120;17.248;2022-11-20T13:29:31;22.95;;;11.02;;
40164;SDS011;25882;51.120;17.248;2022-11-20T13:32:02;26.50;;;12.68;;
40164;SDS011;25882;51.120;17.248;2022-11-20T13:34:34;29.05;;;14.85;;
40164;SDS011;25882;51.120;17.248;2022-11-20T13:37:03;25.55;;;12.30;;
40164;SDS011;25882;51.120;17.248;2022-11-20T13:39:30;21.20;;;12.20;;
40164;SDS011;25882;51.120;17.248;2022-11-20T13:41:58;22.00;;;12.07;;
40164;SDS011;25882;51.120;17.248;2022-11-20T13:44:27;23.85;;;11.00;;
40164;SDS011;25882;51.120;17.248;2022-11-20T13:47:00;24.30;;;11.25;;
40164;SDS011;25882;51.120;17.248;2022-11-20T13:49:28;23.98;;;10.88;;
40164;SDS011;25882;51.120;17.248;2022-11-20T13:51:59;25.88;;;11.55;;
40164;SDS011;25882;51.120;17.248;2022-11-20T14:00:25;22.70;;;11.20;;
40164;SDS011;25882;51.120;17.248;2022-11-20T14:02:58;21.05;;;11.38;;
40164;SDS011;25882;51.120;17.248;2022-11-20T14:05:27;19.10;;;9.25;;
40164;SDS011;25882;51.120;17.248;2022-11-20T14:07:56;21.27;;;10.65;;
40164;SDS011;25882;51.120;17.248;2022-11-20T14:10:23;22.17;;;11.15;;
40164;SDS011;25882;51.120;17.248;2022-11-20T14:12:51;23.42;;;11.63;;
40164;SDS011;25882;51.120;17.248;2022-11-20T14:15:27;23.15;;;11.23;;
40164;SDS011;25882;51.120;17.248;2022-11-20T14:17:55;20.60;;;10.18;;
40164;SDS011;25882;51.120;17.248;2022-11-20T14:20:23;21.00;;;11.57;;
40164;SDS011;25882;51.120;17.248;2022-11-20T14:22:53;25.52;;;11.13;;
40164;SDS011;25882;51.120;17.248;2022-11-20T14:25:20;24.70;;;12.23;;
40164;SDS011;25882;51.120;17.248;2022-11-20T14:27:50;31.63;;;14.88;;
40164;SDS011;25882;51.120;17.248;2022-11-20T14:30:19;33.40;;;14.85;;
40164;SDS011;25882;51.120;17.248;2022-11-20T14:32:49;43.10;;;18.48;;